Time;durP1;ratioP1;P1;durP2;ratioP2;P2;SDS_P1;SDS_P2;PMS_P1;PMS_P2;Temp;Humidity;BMP_temperature;BMP_pressure;BME280_temperature;BME280_humidity;BME280_pressure;Samples;Min_cycle;Max_cycle;Signal;HPM_P1;HPM_P2
2022/07/30 00:01:14;;;;;;;6.65;5.55;;;;;;;17.47;74.12;98721.42;1336817;87;21058;-70
2022/07/30 00:03:15;;;;;;;8.25;5.87;;;;;;;17.44;74.12;98713.19;1335900;88;21090;-71
2022/07/30 00:05:15;;;;;;;;;;;;;;;17.45;74.21;98716.22;1337037;88;80838;-70
2022/07/30 00:07:16;;;;;;;7.30;5.53;;;;;;;17.46;74.29;98717.06;1330670;88;20319;-70
2022/07/30 00:09:17;;;;;;;5.92;5.33;;;;;;;17.43;74.29;98717.31;1335059;88;81542;-70
2022/07/30 00:11:22;;;;;;;6.37;5.78;;;;;;;17.43;74.29;98708.86;1335743;89;21707;-70
2022/07/30 00:13:23;;;;;;;6.20;5.60;;;;;;;17.43;74.35;98704.86;1334823;88;21090;-71
2022/07/30 00:15:24;;;;;;;11.18;5.83;;;;;;;17.43;74.35;98707.52;1334558;88;81699;-71
2022/07/30 00:17:25;;;;;;;6.20;5.25;;;;;;;17.44;74.37;98705.70;1335888;88;21633;-70
2022/07/30 00:19:26;;;;;;;5.75;5.30;;;;;;;17.44;74.41;98702.53;1334058;87;81435;-70
2022/07/30 00:21:28;;;;;;;19.32;5.35;;;;;;;17.46;74.36;98699.27;1335883;88;21078;-70
2022/07/30 00:23:29;;;;;;;12.18;5.58;;;;;;;17.46;74.35;98699.73;1335462;89;21643;-70
2022/07/30 00:25:30;;;;;;;7.72;5.67;;;;;;;17.44;74.35;98693.70;1333207;88;81520;-69
2022/07/30 00:27:33;;;;;;;7.70;5.58;;;;;;;17.42;74.31;98687.17;1335645;88;21086;-71
2022/07/30 00:29:35;;;;;;;6.28;5.58;;;;;;;17.41;74.34;98685.47;1333772;88;80884;-70
2022/07/30 00:31:37;;;;;;;9.58;5.47;;;;;;;17.42;74.41;98680.51;1336120;87;21032;-70
2022/07/30 00:33:38;;;;;;;11.00;5.95;;;;;;;17.43;74.44;98682.21;1336241;87;21083;-70
2022/07/30 00:35:40;;;;;;;8.58;5.12;;;;;;;17.44;74.46;98671.89;1339915;88;81763;-70
2022/07/30 00:37:42;;;;;;;10.23;5.53;;;;;;;17.43;74.50;98666.23;1338470;88;21138;-70
2022/07/30 00:39:43;;;;;;;10.75;6.00;;;;;;;17.44;74.52;98666.56;1334650;87;80961;-70
2022/07/30 00:41:59;;;;;;;7.80;5.60;;;;;;;17.42;74.62;98659.66;1335918;87;21031;-70
2022/07/30 00:44:00;;;;;;;8.18;5.40;;;;;;;17.39;74.68;98659.45;1335827;89;21091;-70
2022/07/30 00:46:01;;;;;;;7.97;5.60;;;;;;;17.36;74.72;98652.55;1333835;88;80795;-70
2022/07/30 00:48:02;;;;;;;11.85;5.78;;;;;;;17.35;74.78;98652.19;1335591;87;21137;-71
2022/07/30 00:50:06;;;;;;;12.73;5.12;;;;;;;17.33;74.82;98648.81;1333282;88;82050;-70
2022/07/30 00:52:07;;;;;;;5.62;5.22;;;;;;;17.32;74.91;98651.58;1336733;88;21158;-71
2022/07/30 00:54:10;;;;;;;9.08;5.12;;;;;;;17.32;74.93;98651.58;1334345;88;92770;-71
2022/07/30 00:56:11;;;;;;;9.10;5.50;;;;;;;17.31;74.95;98648.58;1334524;88;21110;-70
2022/07/30 00:58:12;;;;;;;16.97;5.80;;;;;;;17.30;74.99;98645.55;1336106;87;21138;-71
2022/07/30 01:00:15;;;;;;;9.10;5.10;;;;;;;17.30;75.08;98648.20;1334364;88;81813;-70
2022/07/30 01:02:16;;;;;;;12.07;5.53;;;;;;;17.31;75.08;98640.09;1335420;89;21050;-71
2022/07/30 01:04:17;;;;;;;11.38;5.42;;;;;;;17.32;75.12;98640.92;1333745;88;81085;-70
2022/07/30 01:06:18;;;;;;;9.43;5.47;;;;;;;17.32;75.10;98636.46;1336370;89;21031;-71
2022/07/30 01:08:19;;;;;;;10.95;5.17;;;;;;;17.35;75.13;98634.03;1335954;88;21066;-71
2022/07/30 01:10:19;;;;;;;;;;;;;;;17.36;75.16;98635.70;1336179;87;81644;-71
2022/07/30 01:12:23;;;;;;;5.90;5.20;;;;;;;17.36;75.24;98635.70;1328357;87;20146;-71
2022/07/30 01:14:24;;;;;;;6.95;6.22;;;;;;;17.36;75.20;98631.70;1338067;87;81885;-72
2022/07/30 01:16:25;;;;;;;5.95;5.45;;;;;;;17.38;75.20;98632.45;1329038;89;21265;-72
2022/07/30 01:19:47;;;;;;;;;;;;;;;17.39;75.16;98634.61;1333085;87;21046;-71
2022/07/30 01:20:37;;;;;;;10.78;5.60;;;;;;;17.39;75.27;98628.81;1302867;90;68157;-71
2022/07/30 01:22:51;;;;;;;5.85;5.35;;;;;;;17.39;75.23;98627.48;1339134;87;21120;-71
2022/07/30 01:25:14;;;;;;;12.43;5.80;;;;;;;17.41;75.25;98631.35;1338478;87;80810;-72
2022/07/30 01:27:17;;;;;;;8.43;5.83;;;;;;;17.43;75.26;98630.26;1336360;88;21083;-71
2022/07/30 01:29:18;;;;;;;7.47;5.92;;;;;;;17.46;75.29;98624.67;1333261;88;80826;-71
2022/07/30 01:31:22;;;;;;;6.87;5.80;;;;;;;17.48;75.29;98625.38;1335957;88;21114;-71
2022/07/30 01:33:26;;;;;;;10.68;5.37;;;;;;;17.51;75.31;98621.61;1336626;87;22398;-72
2022/07/30 01:35:29;;;;;;;7.05;5.92;;;;;;;17.52;75.33;98618.81;1334010;88;80994;-72
2022/07/30 01:37:32;;;;;;;9.98;5.50;;;;;;;17.52;75.36;98620.15;1336412;89;21372;-70
2022/07/30 01:39:35;;;;;;;8.25;5.83;;;;;;;17.52;75.33;98611.33;1334392;88;81697;-74
2022/07/30 01:41:38;;;;;;;11.53;5.85;;;;;;;17.51;75.34;98607.83;1335159;87;21059;-72
2022/07/30 01:43:42;;;;;;;8.03;6.25;;;;;;;17.52;75.41;98603.33;1336107;88;21440;-71
2022/07/30 01:45:45;;;;;;;9.38;6.60;;;;;;;17.53;75.45;98601.86;1334475;88;81627;-71
2022/07/30 01:47:46;;;;;;;6.67;6.08;;;;;;;17.54;75.50;98590.70;1335983;88;21095;-72
2022/07/30 01:49:49;;;;;;;8.30;5.97;;;;;;;17.53;75.52;98591.20;1333832;88;81097;-72
2022/07/30 01:51:53;;;;;;;9.45;6.08;;;;;;;17.53;75.51;98585.88;1335857;87;21098;-71
2022/07/30 01:53:57;;;;;;;7.90;6.45;;;;;;;17.52;75.51;98585.51;1335844;88;21056;-71
2022/07/30 01:56:00;;;;;;;7.25;6.33;;;;;;;17.52;75.51;98587.34;1334281;88;81727;-71
2022/07/30 01:58:04;;;;;;;7.35;6.15;;;;;;;17.52;75.52;98582.02;1336155;89;21205;-71
2022/07/30 02:00:07;;;;;;;10.15;6.83;;;;;;;17.51;75.54;98588.30;1336012;88;82045;-72
2022/07/30 02:02:08;;;;;;;9.80;6.22;;;;;;;17.50;75.56;98585.27;1336293;88;21142;-71
2022/07/30 02:04:09;;;;;;;7.90;6.28;;;;;;;17.50;75.61;98584.81;1335098;87;81723;-72
2022/07/30 02:06:14;;;;;;;8.38;6.33;;;;;;;17.49;75.62;98584.44;1336139;89;21168;-72
2022/07/30 02:08:39;;;;;;;7.17;5.97;;;;;;;17.50;75.59;98573.28;1333554;88;21630;-71
2022/07/30 02:10:47;;;;;;;9.70;5.92;;;;;;;17.49;75.62;98576.45;1334474;88;80847;-72
2022/07/30 02:12:51;;;;;;;7.05;6.37;;;;;;;17.48;75.73;98580.08;1336059;89;21357;-72
2022/07/30 02:15:14;;;;;;;11.03;6.75;;;;;;;17.49;75.73;98575.12;1333921;88;80819;-71
2022/07/30 02:17:18;;;;;;;10.80;6.80;;;;;;;17.48;75.72;98582.73;1334800;88;22298;-72
2022/07/30 02:19:22;;;;;;;10.08;6.25;;;;;;;17.49;75.79;98584.44;1334038;88;82229;-72
2022/07/30 02:21:25;;;;;;;10.23;7.45;;;;;;;17.51;75.86;98584.31;1335396;88;21069;-72
2022/07/30 02:23:28;;;;;;;9.00;7.05;;;;;;;17.52;75.91;98573.52;1335853;87;21043;-72
2022/07/30 02:25:32;;;;;;;11.75;7.12;;;;;;;17.52;75.92;98565.52;1333841;88;81646;-71
2022/07/30 02:27:36;;;;;;;9.30;6.80;;;;;;;17.55;75.95;98562.27;1335671;89;22124;-72
2022/07/30 02:29:37;;;;;;;10.03;7.58;;;;;;;17.55;75.95;98561.77;1335405;88;81253;-72
2022/07/30 02:31:40;;;;;;;20.12;7.40;;;;;;;17.56;75.95;98560.80;1335853;88;21078;-72
2022/07/30 02:33:45;;;;;;;7.95;7.17;;;;;;;17.57;75.99;98560.30;1336503;88;21407;-72
2022/07/30 02:35:47;;;;;;;19.57;8.00;;;;;;;17.58;76.01;98558.00;1334625;87;81541;-72
2022/07/30 02:37:51;;;;;;;16.12;7.25;;;;;;;17.59;76.01;98563.20;1335540;88;21102;-72
2022/07/30 02:39:54;;;;;;;9.38;6.90;;;;;;;17.59;76.05;98558.36;1334998;88;81065;-72
2022/07/30 02:41:57;;;;;;;8.18;7.47;;;;;;;17.59;76.09;98555.70;1335402;87;21066;-72
2022/07/30 02:43:59;;;;;;;9.85;7.50;;;;;;;17.59;76.08;98550.38;1336226;89;21062;-72
2022/07/30 02:46:01;;;;;;;13.80;8.05;;;;;;;17.59;76.09;98553.87;1334081;88;81677;-72
2022/07/30 02:48:05;;;;;;;12.07;7.22;;;;;;;17.60;76.11;98553.37;1335971;88;21487;-71
2022/07/30 02:50:09;;;;;;;16.07;7.67;;;;;;;17.60;76.09;98553.37;1333540;88;81812;-72
2022/07/30 02:52:14;;;;;;;14.38;7.50;;;;;;;17.62;76.10;98564.27;1335820;87;21079;-72
2022/07/30 02:54:18;;;;;;;12.28;7.80;;;;;;;17.62;76.07;98566.09;1334544;88;81044;-70
2022/07/30 02:56:21;;;;;;;15.75;7.85;;;;;;;17.62;76.08;98566.92;1335946;88;22227;-71
2022/07/30 02:58:24;;;;;;;8.65;7.25;;;;;;;17.65;76.12;98565.83;1335471;89;21121;-71
2022/07/30 03:00:29;;;;;;;12.58;8.18;;;;;;;17.66;76.11;98560.86;1334040;88;81397;-72
2022/07/30 03:02:32;;;;;;;10.98;7.92;;;;;;;17.66;76.08;98559.53;1336048;88;21055;-71
2022/07/30 03:04:36;;;;;;;14.28;7.60;;;;;;;17.68;76.12;98558.90;1343248;87;82061;-70
2022/07/30 03:06:39;;;;;;;11.25;8.18;;;;;;;17.69;76.11;98557.94;1335536;88;21508;-71
2022/07/30 03:08:43;;;;;;;8.58;7.65;;;;;;;17.70;76.11;98556.97;1335810;87;21135;-71
2022/07/30 03:10:44;;;;;;;9.33;7.60;;;;;;;17.70;76.09;98559.63;1334704;87;81700;-72
2022/07/30 03:12:47;;;;;;;11.12;7.78;;;;;;;17.68;76.08;98561.56;1337176;88;21176;-71
2022/07/30 03:14:50;;;;;;;16.20;8.10;;;;;;;17.70;76.12;98563.62;1333258;88;82139;-72
2022/07/30 03:16:58;;;;;;;21.52;7.40;;;;;;;17.70;76.15;98566.30;1336420;89;21058;-72
2022/07/30 03:19:01;;;;;;;15.28;8.73;;;;;;;17.71;76.14;98568.00;1335952;89;21039;-72
2022/07/30 03:21:04;;;;;;;12.37;8.40;;;;;;;17.72;76.20;98571.50;1333969;88;81875;-73
2022/07/30 03:23:07;;;;;;;16.55;8.53;;;;;;;17.73;76.23;98571.86;1335800;89;21154;-72
2022/07/30 03:25:09;;;;;;;14.90;8.83;;;;;;;17.74;76.28;98569.06;1334905;88;81320;-72
2022/07/30 03:27:12;;;;;;;9.88;8.63;;;;;;;17.74;76.28;98570.39;1343765;88;21722;-71
2022/07/30 03:29:15;;;;;;;13.13;8.98;;;;;;;17.74;76.30;98560.23;1333735;88;81702;-72
2022/07/30 03:31:17;;;;;;;11.70;9.30;;;;;;;17.71;76.32;98560.00;1335496;88;21868;-71
2022/07/30 03:33:20;;;;;;;14.47;8.53;;;;;;;17.73;76.32;98563.36;1342406;87;21058;-71
2022/07/30 03:35:25;;;;;;;12.75;9.18;;;;;;;17.72;76.29;98563.00;1333893;88;81046;-72
2022/07/30 03:37:27;;;;;;;12.55;8.90;;;;;;;17.73;76.32;98564.70;1341528;87;21181;-72
2022/07/30 03:39:32;;;;;;;11.65;9.33;;;;;;;17.73;76.38;98562.03;1344902;88;81076;-71
2022/07/30 03:41:36;;;;;;;14.10;9.10;;;;;;;17.72;76.47;98567.00;1340691;87;21046;-71
2022/07/30 03:43:39;;;;;;;12.80;9.78;;;;;;;17.71;76.49;98558.67;1341018;88;21078;-72
2022/07/30 03:45:43;;;;;;;16.52;9.53;;;;;;;17.72;76.52;98563.00;1339669;87;81935;-72
2022/07/30 03:47:46;;;;;;;12.45;9.58;;;;;;;17.72;76.51;98571.00;1335044;88;21090;-71
2022/07/30 03:49:47;;;;;;;10.80;8.98;;;;;;;17.73;76.53;98570.03;1338809;87;83590;-71
2022/07/30 03:51:49;;;;;;;16.52;9.23;;;;;;;17.74;76.56;98578.39;1317125;90;21026;-72
2022/07/30 03:53:50;;;;;;;21.80;9.80;;;;;;;17.42;76.52;98518.46;1313999;89;21085;-71
2022/07/30 03:55:52;;;;;;;20.10;9.43;;;;;;;17.73;76.51;98579.36;1339136;87;80881;-71
2022/07/30 03:57:53;;;;;;;11.55;9.00;;;;;;;17.73;76.53;98576.69;1335483;87;21115;-72
2022/07/30 03:59:54;;;;;;;16.32;9.38;;;;;;;17.73;76.57;98583.36;1334260;87;81058;-72
2022/07/30 04:02:03;;;;;;;17.48;9.00;;;;;;;17.73;76.61;98592.69;1336016;88;21941;-71
2022/07/30 04:04:06;;;;;;;13.83;10.15;;;;;;;17.74;76.59;98589.55;1341532;88;21091;-71
2022/07/30 04:06:07;;;;;;;13.75;9.48;;;;;;;17.74;76.61;98588.22;1334172;88;81643;-72
2022/07/30 04:08:08;;;;;;;15.18;10.48;;;;;;;17.75;76.61;98591.22;1340884;88;21066;-71
2022/07/30 04:10:09;;;;;;;;;;;;;;;17.50;76.60;98556.83;1337163;88;81185;-71
2022/07/30 04:12:12;;;;;;;14.80;9.80;;;;;;;17.72;76.69;98599.48;1340716;87;20385;-71
2022/07/30 04:14:13;;;;;;;14.83;9.83;;;;;;;17.73;76.70;98598.02;1332790;88;81024;-71
2022/07/30 04:16:21;;;;;;;12.15;10.50;;;;;;;17.74;76.75;98600.22;1336169;87;21184;-70
2022/07/30 04:18:25;;;;;;;15.45;9.55;;;;;;;17.76;76.75;98607.08;1341169;87;21070;-72
2022/07/30 04:20:32;;;;;;;19.95;9.50;;;;;;;17.77;76.77;98602.11;1333480;87;81994;-72
2022/07/30 04:22:36;;;;;;;16.45;10.80;;;;;;;17.80;76.77;98596.52;1316625;90;21138;-72
2022/07/30 04:24:39;;;;;;;12.88;9.65;;;;;;;17.82;76.83;98597.25;1311638;90;82020;-71
2022/07/30 04:26:40;;;;;;;14.28;9.80;;;;;;;17.82;76.79;98591.92;1342566;87;21015;-71
2022/07/30 04:28:41;;;;;;;14.83;10.15;;;;;;;17.84;76.83;98596.62;1330177;88;22401;-71
2022/07/30 04:30:42;;;;;;;14.65;10.30;;;;;;;17.84;76.84;98596.62;1326442;88;81150;-71
2022/07/30 04:32:43;;;;;;;15.13;9.38;;;;;;;17.85;76.85;98590.32;1327926;88;21047;-71
2022/07/30 04:34:46;;;;;;;17.42;9.80;;;;;;;17.87;76.87;98591.05;1326107;88;82085;-71
2022/07/30 04:36:47;;;;;;;15.40;10.53;;;;;;;17.88;76.91;98587.38;1328535;88;21107;-71
2022/07/30 04:38:48;;;;;;;16.57;10.75;;;;;;;17.87;76.92;98587.05;1328011;88;21706;-71
2022/07/30 04:40:49;;;;;;;20.52;9.40;;;;;;;17.91;76.95;98590.78;1325884;87;81031;-71
2022/07/30 04:42:51;;;;;;;13.93;9.50;;;;;;;17.91;76.96;98589.45;1308106;90;21597;-71
2022/07/30 04:44:53;;;;;;;14.53;9.48;;;;;;;17.92;76.94;98589.84;1304024;90;81002;-71
2022/07/30 04:46:56;;;;;;;16.67;9.90;;;;;;;17.93;76.97;98589.72;1305212;90;21149;-71
2022/07/30 04:48:57;;;;;;;10.48;9.05;;;;;;;17.94;76.96;98595.88;1308828;89;21506;-71
2022/07/30 04:51:02;;;;;;;16.80;9.38;;;;;;;17.94;76.96;98595.88;1286424;89;80888;-71
2022/07/30 04:53:04;;;;;;;19.10;9.05;;;;;;;17.95;76.96;98593.58;1305829;89;21055;-72
2022/07/30 04:55:08;;;;;;;12.30;9.28;;;;;;;17.95;76.96;98600.25;1304597;90;80953;-71
2022/07/30 04:57:14;;;;;;;21.85;10.30;;;;;;;17.98;76.99;98598.64;1311854;89;21079;-70
2022/07/30 04:59:17;;;;;;;15.03;9.88;;;;;;;18.00;77.06;98597.55;1307275;89;82154;-69
2022/07/30 05:01:21;;;;;;;13.30;10.38;;;;;;;18.04;77.08;98600.77;1287655;92;21031;-70
2022/07/30 05:03:24;;;;;;;17.73;9.83;;;;;;;18.05;77.07;98598.47;1307940;89;21592;-70
2022/07/30 05:05:26;;;;;;;13.70;9.83;;;;;;;18.05;77.06;98598.47;1304942;89;81521;-71
2022/07/30 05:07:28;;;;;;;17.67;9.20;;;;;;;18.06;77.09;98590.84;1312427;89;21035;-70
2022/07/30 05:09:30;;;;;;;10.08;9.05;;;;;;;18.07;77.08;98588.53;1326173;88;81827;-71
2022/07/30 05:11:31;;;;;;;13.78;10.28;;;;;;;18.07;77.12;98582.34;1309046;89;21098;-70
2022/07/30 05:13:32;;;;;;;11.73;9.53;;;;;;;18.07;77.11;98584.53;1306259;89;21058;-70
2022/07/30 05:15:33;;;;;;;16.75;10.35;;;;;;;18.07;77.14;98585.87;1303997;90;81866;-71
2022/07/30 05:17:35;;;;;;;12.47;10.50;;;;;;;18.08;77.21;98582.70;1305851;90;21594;-71
2022/07/30 05:19:36;;;;;;;11.30;10.23;;;;;;;18.10;77.20;98591.43;1303914;91;82434;-70
2022/07/30 05:21:37;;;;;;;15.85;10.50;;;;;;;18.10;77.25;98589.59;1306261;90;21118;-70
2022/07/30 05:23:38;;;;;;;;;;;;;;;18.15;77.32;98591.39;1308710;89;21095;-70
2022/07/30 05:25:39;;;;;;;14.50;10.78;;;;;;;18.20;77.43;98590.98;1306925;88;67209;-72
2022/07/30 05:27:40;;;;;;;16.25;10.60;;;;;;;18.24;77.40;98597.75;1308142;89;21070;-71
2022/07/30 05:29:41;;;;;;;19.52;10.60;;;;;;;18.27;77.34;98604.64;1297339;91;81756;-71
2022/07/30 05:31:42;;;;;;;16.00;10.98;;;;;;;18.32;77.35;98605.10;1332764;88;21007;-72
2022/07/30 05:33:43;;;;;;;13.95;11.75;;;;;;;18.34;77.30;98595.95;1332876;87;21086;-72
2022/07/30 05:35:44;;;;;;;18.23;11.18;;;;;;;18.38;77.33;98596.55;1287198;90;81002;-72
2022/07/30 05:37:45;;;;;;;18.37;10.75;;;;;;;18.39;77.29;98602.25;1299633;91;21195;-71
2022/07/30 05:39:46;;;;;;;19.07;10.85;;;;;;;18.42;77.34;98591.80;1330837;88;82110;-71
2022/07/30 05:41:47;;;;;;;11.65;10.15;;;;;;;18.45;77.36;98596.37;1332237;87;21058;-69
2022/07/30 05:43:48;;;;;;;13.90;11.63;;;;;;;18.45;77.38;98596.37;1332089;88;21512;-70
2022/07/30 05:45:49;;;;;;;13.45;12.05;;;;;;;18.48;77.41;98594.76;1331135;87;81263;-70
2022/07/30 05:47:49;;;;;;;12.88;11.65;;;;;;;18.51;77.54;98601.19;1331933;88;21126;-70
2022/07/30 05:49:50;;;;;;;;;;;;;;;18.52;77.47;98604.19;1333154;88;81494;-69
2022/07/30 05:51:51;;;;;;;19.98;13.03;;;;;;;18.55;77.62;98605.75;1310281;89;20213;-71
2022/07/30 05:53:52;;;;;;;;;;;;;;;18.59;77.54;98609.84;1303437;90;21079;-70
2022/07/30 05:55:53;;;;;;;15.95;12.43;;;;;;;18.62;77.52;98607.39;1306237;90;67270;-70
2022/07/30 05:57:53;;;;;;;;;;;;;;;18.63;77.52;98606.42;1303083;91;21075;-70
2022/07/30 05:59:55;;;;;;;16.40;12.93;;;;;;;18.65;77.55;98608.45;1306181;89;67238;-70
2022/07/30 06:01:56;;;;;;;19.98;14.35;;;;;;;18.65;77.52;98609.79;1299189;90;21137;-70
2022/07/30 06:03:57;;;;;;;24.60;14.65;;;;;;;18.67;77.48;98609.19;1332733;89;21111;-70
2022/07/30 06:06:02;;;;;;;17.48;14.20;;;;;;;18.68;77.48;98601.54;1304784;90;81839;-70
2022/07/30 06:08:04;;;;;;;28.15;15.45;;;;;;;18.68;77.47;98597.53;1308449;89;21066;-70
2022/07/30 06:10:05;;;;;;;20.62;14.53;;;;;;;18.70;77.49;98600.90;1298642;91;81209;-71
2022/07/30 06:12:06;;;;;;;18.42;14.68;;;;;;;18.72;77.47;98604.30;1332631;88;21528;-71
2022/07/30 06:14:07;;;;;;;15.90;13.30;;;;;;;18.76;77.47;98607.52;1333611;87;21043;-70
2022/07/30 06:16:08;;;;;;;14.15;12.23;;;;;;;18.75;77.44;98600.02;1307301;89;81044;-71
2022/07/30 06:18:09;;;;;;;18.75;13.40;;;;;;;18.78;77.46;98602.91;1299757;90;21095;-71
2022/07/30 06:20:12;;;;;;;16.35;12.93;;;;;;;18.81;77.44;98598.63;1330728;88;81232;-71
2022/07/30 06:22:14;;;;;;;17.67;12.47;;;;;;;18.83;77.43;98600.65;1331584;87;21609;-72
2022/07/30 06:24:15;;;;;;;20.37;12.37;;;;;;;18.86;77.43;98594.55;1330348;87;82481;-71
2022/07/30 06:26:16;;;;;;;21.55;13.03;;;;;;;18.91;77.43;98592.84;1332363;88;21586;-69
2022/07/30 06:28:18;;;;;;;15.83;12.20;;;;;;;18.95;77.40;98594.75;1334416;87;21007;-69
2022/07/30 06:30:19;;;;;;;15.10;11.50;;;;;;;18.98;77.39;98598.01;1353023;86;82038;-69
2022/07/30 06:32:20;;;;;;;16.67;11.90;;;;;;;19.03;77.39;98600.26;1352938;86;21459;-69
2022/07/30 06:34:21;;;;;;;15.68;11.55;;;;;;;19.07;77.37;98592.32;1353382;86;82595;-70
2022/07/30 06:36:22;;;;;;;15.93;11.00;;;;;;;19.12;77.38;98589.23;1336028;87;22235;-69
2022/07/30 06:38:23;;;;;;;16.85;11.75;;;;;;;19.13;77.27;98590.92;1334656;87;21102;-68
2022/07/30 06:40:24;;;;;;;13.13;11.83;;;;;;;19.12;77.17;98590.56;1333119;87;82400;-69
2022/07/30 06:42:25;;;;;;;13.90;11.55;;;;;;;19.13;77.22;98597.09;1333687;87;21022;-69
2022/07/30 06:44:26;;;;;;;15.55;11.90;;;;;;;19.15;77.25;98592.48;1332487;87;81580;-69
2022/07/30 06:46:27;;;;;;;14.38;12.65;;;;;;;19.17;77.25;98585.66;1337702;87;21918;-69
2022/07/30 06:48:31;;;;;;;16.23;12.43;;;;;;;19.19;77.22;98579.20;1335900;87;20987;-69
2022/07/30 06:50:34;;;;;;;23.25;12.20;;;;;;;19.21;77.19;98573.20;1335766;87;81717;-70
2022/07/30 06:52:35;;;;;;;16.77;11.85;;;;;;;19.23;77.18;98568.59;1335207;87;21058;-70
2022/07/30 06:54:36;;;;;;;13.13;11.83;;;;;;;19.27;77.19;98569.64;1332981;87;81309;-69
2022/07/30 06:56:37;;;;;;;13.65;12.35;;;;;;;19.29;77.22;98568.52;1336261;87;21666;-70
2022/07/30 06:58:38;;;;;;;17.90;12.82;;;;;;;19.34;77.22;98562.74;1334837;87;21140;-70
2022/07/30 07:00:39;;;;;;;26.75;13.48;;;;;;;19.37;77.17;98563.79;1332118;87;81171;-70
2022/07/30 07:02:41;;;;;;;18.73;12.43;;;;;;;19.40;77.14;98556.85;1334531;87;21338;-70
2022/07/30 07:04:42;;;;;;;19.48;12.47;;;;;;;19.41;77.12;98553.17;1331885;87;82262;-70
2022/07/30 07:06:43;;;;;;;18.07;11.48;;;;;;;19.44;77.11;98554.72;1335119;87;20995;-70
2022/07/30 07:08:44;;;;;;;19.85;11.80;;;;;;;19.47;77.08;98558.47;1334330;87;21530;-70
2022/07/30 07:10:45;;;;;;;17.55;12.03;;;;;;;19.49;77.04;98559.16;1334446;87;82102;-70
2022/07/30 07:12:46;;;;;;;14.75;11.48;;;;;;;19.48;76.98;98566.34;1335179;87;21055;-70
2022/07/30 07:14:47;;;;;;;16.37;11.55;;;;;;;19.50;77.00;98559.02;1332507;87;82395;-71
2022/07/30 07:16:48;;;;;;;20.00;11.57;;;;;;;19.54;77.07;98555.58;1334832;87;21050;-70
2022/07/30 07:18:53;;;;;;;21.95;12.37;;;;;;;19.58;77.02;98561.00;1337752;87;21508;-70
2022/07/30 07:20:54;;;;;;;17.27;11.90;;;;;;;19.63;77.06;98560.56;1333356;87;82181;-70
2022/07/30 07:22:55;;;;;;;18.17;12.23;;;;;;;19.70;77.16;98560.34;1333591;89;21776;-69
2022/07/30 07:24:56;;;;;;;17.67;12.50;;;;;;;19.75;77.06;98555.41;1332647;87;81125;-70
2022/07/30 07:26:57;;;;;;;16.82;12.03;;;;;;;19.78;77.03;98554.28;1335066;87;21066;-70
2022/07/30 07:28:58;;;;;;;16.48;11.70;;;;;;;19.82;77.00;98563.23;1334976;88;21111;-70
2022/07/30 07:30:59;;;;;;;20.25;12.95;;;;;;;19.85;76.97;98550.91;1332890;88;81111;-71
2022/07/30 07:33:00;;;;;;;18.42;12.53;;;;;;;19.88;76.91;98557.80;1335323;88;21191;-71
2022/07/30 07:35:03;;;;;;;27.00;12.15;;;;;;;19.90;76.88;98557.19;1333341;87;82080;-70
2022/07/30 07:37:04;;;;;;;27.25;12.85;;;;;;;19.93;76.79;98558.73;1335123;88;21597;-69
2022/07/30 07:39:08;;;;;;;22.42;11.60;;;;;;;19.96;76.78;98556.59;1333975;87;21067;-70
2022/07/30 07:41:09;;;;;;;15.80;11.25;;;;;;;19.99;76.67;98558.14;1335940;87;81989;-70
2022/07/30 07:43:10;;;;;;;17.15;11.50;;;;;;;20.01;76.61;98553.50;1337266;88;21094;-70
2022/07/30 07:45:11;;;;;;;16.48;10.98;;;;;;;20.03;76.62;98551.52;1332068;87;81185;-70
2022/07/30 07:47:12;;;;;;;23.57;14.90;;;;;;;20.05;76.56;98549.55;1334539;88;21023;-69
2022/07/30 07:49:13;;;;;;;27.15;20.30;;;;;;;20.05;76.48;98547.70;1333863;87;81175;-69
2022/07/30 07:51:15;;;;;;;23.30;17.35;;;;;;;20.08;76.44;98545.24;1336112;88;21574;-69
2022/07/30 07:53:16;;;;;;;20.40;15.98;;;;;;;20.13;76.41;98544.31;1337015;87;20994;-69
2022/07/30 07:55:17;;;;;;;23.95;14.85;;;;;;;20.18;76.40;98543.36;1333901;87;82092;-69
2022/07/30 07:57:18;;;;;;;31.73;21.37;;;;;;;20.21;76.32;98540.42;1334522;87;22421;-68
2022/07/30 07:59:19;;;;;;;32.05;21.87;;;;;;;20.24;76.22;98538.78;1332723;87;81264;-69
2022/07/30 08:01:23;;;;;;;26.12;22.30;;;;;;;20.27;76.16;98529.63;1337184;87;20975;-69
2022/07/30 08:03:24;;;;;;;28.50;23.15;;;;;;;20.35;76.20;98530.20;1336617;87;21067;-69
2022/07/30 08:05:25;;;;;;;25.35;18.42;;;;;;;20.37;76.11;98525.56;1333546;87;81921;-69
2022/07/30 08:07:26;;;;;;;22.40;18.77;;;;;;;20.38;75.96;98521.40;1336456;87;21059;-69
2022/07/30 08:09:27;;;;;;;16.80;13.88;;;;;;;20.40;75.97;98517.23;1334331;87;81294;-70
2022/07/30 08:11:28;;;;;;;16.45;13.05;;;;;;;20.45;75.91;98516.77;1335341;87;21075;-69
2022/07/30 08:13:30;;;;;;;13.43;12.10;;;;;;;20.44;75.70;98515.95;1336051;88;21054;-69
2022/07/30 08:15:30;;;;;;;21.12;13.68;;;;;;;20.43;75.67;98512.91;1332146;87;81451;-69
2022/07/30 08:17:32;;;;;;;10.72;9.55;;;;;;;20.45;75.78;98518.98;1335441;87;21145;-69
2022/07/30 08:19:33;;;;;;;13.98;9.13;;;;;;;20.48;75.70;98516.47;1333224;88;81157;-69
2022/07/30 08:21:34;;;;;;;10.43;9.05;;;;;;;20.51;75.68;98517.53;1336178;87;21079;-69
2022/07/30 08:23:35;;;;;;;11.65;10.05;;;;;;;20.55;75.73;98516.25;1335344;87;21554;-69
2022/07/30 08:25:35;;;;;;;14.78;9.83;;;;;;;20.58;75.64;98514.09;1333263;88;81119;-70
2022/07/30 08:27:37;;;;;;;9.83;8.80;;;;;;;20.61;75.57;98511.62;1335502;87;21062;-69
2022/07/30 08:29:38;;;;;;;18.80;9.75;;;;;;;20.67;75.59;98508.84;1333354;88;80891;-70
2022/07/30 08:31:39;;;;;;;17.30;10.68;;;;;;;20.72;75.55;98510.61;1336289;88;21046;-69
2022/07/30 08:33:40;;;;;;;13.43;9.83;;;;;;;20.77;75.58;98509.67;1335400;87;21078;-70
2022/07/30 08:35:41;;;;;;;10.40;9.43;;;;;;;20.78;75.61;98509.98;1333763;88;81042;-69
2022/07/30 08:37:42;;;;;;;9.60;8.68;;;;;;;20.80;75.59;98509.87;1336004;89;21062;-69
2022/07/30 08:39:43;;;;;;;9.78;7.80;;;;;;;20.82;75.66;98511.38;1334133;88;80774;-69
2022/07/30 08:41:44;;;;;;;9.50;7.62;;;;;;;20.85;75.56;98507.55;1335584;88;21074;-69
2022/07/30 08:43:48;;;;;;;11.88;7.20;;;;;;;20.89;75.51;98503.58;1336948;89;21519;-69
2022/07/30 08:45:51;;;;;;;10.90;7.55;;;;;;;20.92;75.54;98505.47;1333498;88;81596;-69
2022/07/30 08:47:52;;;;;;;8.25;7.12;;;;;;;20.96;75.30;98505.16;1335111;89;21050;-69
2022/07/30 08:49:56;;;;;;;9.73;6.85;;;;;;;20.97;75.20;98502.83;1335199;88;80879;-69
2022/07/30 08:51:57;;;;;;;8.35;7.05;;;;;;;21.01;75.21;98498.86;1335744;89;21082;-70
2022/07/30 08:54:00;;;;;;;7.90;6.65;;;;;;;21.06;75.22;98501.42;1336244;89;21175;-69
2022/07/30 08:56:02;;;;;;;11.55;7.12;;;;;;;21.14;75.17;98503.31;1334633;88;81342;-70
2022/07/30 08:58:05;;;;;;;7.22;6.40;;;;;;;21.21;75.08;98497.71;1336572;89;21103;-70
2022/07/30 09:00:07;;;;;;;11.35;5.97;;;;;;;21.32;75.10;98493.09;1334235;87;81859;-70
2022/07/30 09:02:08;;;;;;;6.25;5.75;;;;;;;21.41;74.93;98486.81;1336191;88;20999;-69
2022/07/30 09:04:09;;;;;;;6.33;5.72;;;;;;;21.51;74.83;98483.53;1336141;89;80963;-70
2022/07/30 09:06:11;;;;;;;6.60;6.05;;;;;;;21.46;74.47;98467.09;1345759;88;21711;-70
2022/07/30 09:08:12;;;;;;;10.25;5.78;;;;;;;21.60;74.40;98477.78;1334129;89;21039;-68
2022/07/30 09:10:13;;;;;;;6.92;6.03;;;;;;;21.69;74.45;98476.81;1309548;89;81886;-69
2022/07/30 09:12:37;;;;;;;6.30;5.65;;;;;;;21.78;74.35;98472.36;1329706;89;21070;-69
2022/07/30 09:14:37;;;;;;;5.60;5.10;;;;;;;21.83;74.12;98470.02;1338200;87;80688;-70
2022/07/30 09:16:40;;;;;;;6.35;5.45;;;;;;;21.92;74.22;98481.16;1336524;88;21094;-69
2022/07/30 09:18:43;;;;;;;11.80;6.28;;;;;;;22.02;74.20;98473.50;1336246;89;21054;-70
2022/07/30 09:20:44;;;;;;;5.70;5.12;;;;;;;22.09;74.10;98478.05;1334555;88;81266;-69
2022/07/30 09:22:50;;;;;;;6.12;4.65;;;;;;;22.18;73.90;98476.75;1337081;88;21019;-69
2022/07/30 09:24:51;;;;;;;7.58;5.22;;;;;;;22.20;73.66;98472.91;1332940;88;81967;-69
2022/07/30 09:27:03;;;;;;;6.60;5.15;;;;;;;22.28;73.50;98463.55;1336206;88;21015;-70
2022/07/30 09:29:18;;;;;;;7.37;5.25;;;;;;;22.35;73.36;98463.78;1335637;89;21015;-70
2022/07/30 09:31:21;;;;;;;5.92;4.83;;;;;;;22.41;72.91;98452.89;1324431;89;21602;-70